Terminal Aerodrome Forecast
Issued by NWS Twin Cities, MN

Home | Current Version | Previous Version | Text Only | Print | Product List | Glossary On
Versions: 1 2 3 4 5 6 7 8 9 10 11 12 13 14 15 16 17
000
FTUS43 KMPX 311741
TAFEAU
TAF
KEAU 311741Z 3118/0118 03007KT P6SM OVC020
     FM010900 04012KT P6SM -SN OVC020
     FM011400 05011KT P6SM BKN020 OVC080=

USA.gov is the U.S. government's official web portal to all federal, state and local government web resources and services.